Time;durP1;ratioP1;P1;durP2;ratioP2;P2;SDS_P1;SDS_P2;PMS_P1;PMS_P2;Temp;Humidity;BMP_temperature;BMP_pressure;BME280_temperature;BME280_humidity;BME280_pressure;Samples;Min_cycle;Max_cycle;Signal;HPM_P1;HPM_P2
2023/04/13 00:02:22;;;;;;;1.85;1.23;;;6.30;48.30;;;;;;5094055;28;20036;-72
2023/04/13 00:04:49;;;;;;;2.42;1.48;;;6.20;55.60;;;;;;5093215;28;20024;-73
2023/04/13 00:07:16;;;;;;;1.27;1.10;;;6.20;58.10;;;;;;5093233;28;20016;-73
2023/04/13 00:09:44;;;;;;;5.22;1.75;;;6.10;61.50;;;;;;5093719;28;20028;-73
2023/04/13 00:12:09;;;;;;;2.15;1.27;;;6.10;56.20;;;;;;5093661;28;20030;-72
2023/04/13 00:14:35;;;;;;;4.75;1.50;;;6.10;55.40;;;;;;5093745;28;20036;-73
2023/04/13 00:17:01;;;;;;;1.92;1.48;;;6.10;53.20;;;;;;5093168;28;20024;-72
2023/04/13 00:19:27;;;;;;;2.60;1.30;;;6.10;53.80;;;;;;5092529;28;20478;-72
2023/04/13 00:21:53;;;;;;;1.90;1.58;;;6.10;51.30;;;;;;5093562;28;20117;-72
2023/04/13 00:24:19;;;;;;;2.05;1.40;;;6.10;43.80;;;;;;5093486;28;20024;-72
2023/04/13 00:26:45;;;;;;;2.15;1.20;;;6.10;45.60;;;;;;5095990;28;20130;-73
2023/04/13 00:29:11;;;;;;;1.35;1.23;;;6.00;48.80;;;;;;5097099;28;20470;-72
2023/04/13 00:31:38;;;;;;;3.72;1.27;;;6.10;49.10;;;;;;5097440;28;20519;-72
2023/04/13 00:34:04;;;;;;;4.38;1.23;;;6.20;41.70;;;;;;5097283;28;20031;-73
2023/04/13 00:36:30;;;;;;;2.20;1.30;;;6.20;40.50;;;;;;5096674;28;20028;-71
2023/04/13 00:38:56;;;;;;;3.10;1.17;;;6.10;38.30;;;;;;5097149;28;20024;-73
2023/04/13 00:41:23;;;;;;;3.20;1.30;;;6.20;41.00;;;;;;5097288;28;20063;-73
2023/04/13 00:43:49;;;;;;;2.92;1.13;;;6.20;35.40;;;;;;5096626;28;20026;-73
2023/04/13 00:46:16;;;;;;;4.07;1.30;;;6.30;30.00;;;;;;5096399;28;20449;-72
2023/04/13 00:48:42;;;;;;;4.90;1.33;;;6.30;30.20;;;;;;5096737;28;20034;-72
2023/04/13 00:51:08;;;;;;;3.67;1.20;;;6.30;26.40;;;;;;5096798;28;20032;-73
2023/04/13 00:53:33;;;;;;;2.85;1.35;;;6.40;21.40;;;;;;5097080;28;20081;-73
2023/04/13 00:56:00;;;;;;;3.45;1.10;;;6.40;18.40;;;;;;5096917;28;20032;-73
2023/04/13 00:58:26;;;;;;;1.63;0.90;;;6.40;14.00;;;;;;5096528;28;20025;-73
2023/04/13 01:00:52;;;;;;;2.67;1.15;;;6.40;17.80;;;;;;5096936;28;20020;-73
2023/04/13 01:03:17;;;;;;;3.08;1.10;;;6.60;5.40;;;;;;5096507;28;20043;-72
2023/04/13 01:05:53;;;;;;;2.22;0.95;;;6.70;1.00;;;;;;5096440;28;20031;-72
2023/04/13 01:08:30;;;;;;;2.10;1.05;;;6.70;1.00;;;;;;5096482;28;20021;-73
2023/04/13 01:11:04;;;;;;;3.60;1.23;;;6.70;1.00;;;;;;5096621;28;20032;-72
2023/04/13 01:13:41;;;;;;;1.48;1.02;;;6.80;1.00;;;;;;5096331;28;20028;-73
2023/04/13 01:16:19;;;;;;;1.80;0.90;;;6.70;1.00;;;;;;5096015;28;20161;-72
2023/04/13 01:18:49;;;;;;;6.45;1.10;;;6.80;1.00;;;;;;5095594;28;20044;-71
2023/04/13 01:21:18;;;;;;;2.35;0.90;;;6.90;1.00;;;;;;5096416;28;20035;-73
2023/04/13 01:24:09;;;;;;;2.05;1.17;;;7.00;1.00;;;;;;5096091;28;20028;-74
2023/04/13 01:26:57;;;;;;;1.83;0.88;;;7.20;1.00;;;;;;5096175;28;20031;-71
2023/04/13 01:29:24;;;;;;;2.88;1.20;;;7.20;1.00;;;;;;5096020;28;20489;-72
2023/04/13 01:31:53;;;;;;;3.78;1.50;;;7.30;1.00;;;;;;5096168;28;20035;-72
2023/04/13 01:34:19;;;;;;;4.65;1.23;;;7.40;1.00;;;;;;5096070;28;20081;-73
2023/04/13 01:36:45;;;;;;;3.30;1.17;;;7.30;1.00;;;;;;5096177;28;20028;-72
2023/04/13 01:39:18;;;;;;;2.95;1.20;;;7.30;17.00;;;;;;5095973;28;20035;-71
2023/04/13 01:41:44;;;;;;;3.70;1.40;;;7.20;27.60;;;;;;5095771;28;20079;-73
2023/04/13 01:44:10;;;;;;;7.47;1.20;;;7.20;42.40;;;;;;5095421;28;20035;-73
2023/04/13 01:46:41;;;;;;;2.03;1.08;;;7.20;37.80;;;;;;5095995;28;20024;-73
2023/04/13 01:49:09;;;;;;;4.07;1.40;;;7.10;52.60;;;;;;5095629;28;20020;-72
2023/04/13 01:51:36;;;;;;;3.22;1.52;;;7.10;45.70;;;;;;5095882;28;20074;-73
2023/04/13 01:54:11;;;;;;;4.55;1.13;;;7.20;33.50;;;;;;5095253;28;20473;-73
2023/04/13 01:56:39;;;;;;;3.42;1.30;;;7.30;21.60;;;;;;5095217;28;20119;-72
2023/04/13 01:59:05;;;;;;;9.75;1.50;;;7.30;38.60;;;;;;5095582;28;20038;-74
2023/04/13 02:01:30;;;;;;;6.00;1.08;;;7.20;29.70;;;;;;5095444;28;20020;-72
2023/04/13 02:03:56;;;;;;;3.00;1.00;;;7.30;11.80;;;;;;5095534;28;20454;-73
2023/04/13 02:06:22;;;;;;;3.58;1.33;;;7.30;22.70;;;;;;5095311;28;20416;-73
2023/04/13 02:08:48;;;;;;;3.42;1.13;;;7.30;24.70;;;;;;5095643;28;20028;-74
2023/04/13 02:11:14;;;;;;;4.65;1.38;;;7.20;36.20;;;;;;5095446;28;20077;-72
2023/04/13 02:13:41;;;;;;;5.63;1.02;;;7.30;29.80;;;;;;5095287;28;20027;-75
2023/04/13 02:16:07;;;;;;;2.83;1.00;;;7.30;23.30;;;;;;5095488;28;20436;-74
2023/04/13 02:18:33;;;;;;;3.53;1.10;;;7.30;23.10;;;;;;5094488;28;20409;-74
2023/04/13 02:21:06;;;;;;;2.90;1.05;;;7.30;26.40;;;;;;5095083;28;20039;-73
2023/04/13 02:23:33;;;;;;;2.92;0.88;;;7.30;14.60;;;;;;5095103;28;20381;-74
2023/04/13 02:25:59;;;;;;;3.08;1.35;;;7.40;17.10;;;;;;5093989;28;20027;-74
2023/04/13 02:28:26;;;;;;;6.53;1.10;;;7.40;11.70;;;;;;5093946;28;20053;-74
2023/04/13 02:30:53;;;;;;;2.75;0.95;;;7.40;18.70;;;;;;5095145;28;20355;-74
2023/04/13 02:33:20;;;;;;;2.58;1.10;;;7.40;12.70;;;;;;5095082;28;20073;-74
2023/04/13 02:35:47;;;;;;;4.18;1.10;;;7.40;7.10;;;;;;5094456;28;20028;-73
2023/04/13 02:38:14;;;;;;;5.00;1.77;;;7.50;3.20;;;;;;5094527;28;20378;-72
2023/04/13 02:40:41;;;;;;;5.28;1.17;;;7.40;3.00;;;;;;5094929;28;20073;-74
2023/04/13 02:43:07;;;;;;;2.72;0.93;;;7.40;7.20;;;;;;5094679;28;20028;-73
2023/04/13 02:45:33;;;;;;;6.22;1.30;;;7.30;20.00;;;;;;5094321;28;20024;-73
2023/04/13 02:47:59;;;;;;;2.47;1.17;;;7.30;15.10;;;;;;5094542;28;20107;-73
2023/04/13 02:50:24;;;;;;;3.63;0.88;;;7.40;10.20;;;;;;5094517;28;20028;-73
2023/04/13 02:52:52;;;;;;;5.93;1.20;;;7.40;9.40;;;;;;5094082;28;20069;-73
2023/04/13 02:55:17;;;;;;;4.47;0.98;;;7.30;15.80;;;;;;5093605;28;20024;-72
2023/04/13 02:57:43;;;;;;;3.85;1.00;;;7.30;20.70;;;;;;5094606;28;20051;-73
2023/04/13 03:00:09;;;;;;;3.50;1.20;;;7.30;26.50;;;;;;5093331;28;20032;-73
2023/04/13 03:02:37;;;;;;;2.67;0.90;;;7.20;28.60;;;;;;5094607;28;20457;-73
2023/04/13 03:05:04;;;;;;;5.03;1.45;;;7.20;27.80;;;;;;5094672;28;20021;-73
2023/04/13 03:07:31;;;;;;;3.50;1.00;;;7.30;14.70;;;;;;5094100;28;20027;-73
2023/04/13 03:09:56;;;;;;;5.07;0.90;;;7.40;16.70;;;;;;5094333;28;20028;-74
2023/04/13 03:12:22;;;;;;;3.22;1.30;;;7.40;11.90;;;;;;5093960;28;20039;-73
2023/04/13 03:14:48;;;;;;;6.15;1.30;;;7.40;3.50;;;;;;5094286;28;20454;-73
2023/04/13 03:17:15;;;;;;;3.00;1.02;;;7.50;1.40;;;;;;5094460;28;20032;-72
2023/04/13 03:19:45;;;;;;;2.58;0.85;;;7.50;1.00;;;;;;5093462;28;20070;-73
2023/04/13 03:22:11;;;;;;;4.93;1.25;;;7.60;1.00;;;;;;5094052;28;20028;-73
2023/04/13 03:24:38;;;;;;;5.45;0.82;;;7.60;1.00;;;;;;5094232;28;20020;-73
2023/04/13 03:27:04;;;;;;;2.47;1.00;;;7.60;1.00;;;;;;5094457;28;20395;-73
2023/04/13 03:29:30;;;;;;;3.88;0.93;;;7.70;1.00;;;;;;5094512;28;20031;-73
2023/04/13 03:31:56;;;;;;;4.60;1.00;;;7.70;1.00;;;;;;5093797;28;20427;-72
2023/04/13 03:34:21;;;;;;;4.72;0.90;;;7.80;1.00;;;;;;5093901;28;20066;-72
2023/04/13 03:36:47;;;;;;;2.40;0.90;;;7.80;1.00;;;;;;5094414;28;20450;-73
2023/04/13 03:39:13;;;;;;;2.97;1.10;;;7.90;1.00;;;;;;5093604;28;20064;-72
2023/04/13 03:41:38;;;;;;;3.47;1.00;;;7.80;1.00;;;;;;5094108;28;20039;-73
2023/04/13 03:44:04;;;;;;;5.57;1.10;;;7.90;1.00;;;;;;5094262;28;20400;-73
2023/04/13 03:46:31;;;;;;;7.03;1.10;;;7.90;1.00;;;;;;5094349;28;20016;-73
2023/04/13 03:48:57;;;;;;;4.03;0.98;;;7.90;1.00;;;;;;5093792;28;20119;-73
2023/04/13 03:51:23;;;;;;;7.55;1.17;;;7.90;1.00;;;;;;5093689;28;20550;-73
2023/04/13 03:53:49;;;;;;;4.75;1.02;;;7.80;1.00;;;;;;5093644;28;20395;-74
2023/04/13 03:56:14;;;;;;;4.10;0.80;;;7.80;1.00;;;;;;5094123;28;20043;-73
2023/04/13 03:58:40;;;;;;;4.57;1.00;;;7.80;1.00;;;;;;5093369;28;20458;-71
2023/04/13 04:01:09;;;;;;;2.88;0.70;;;7.80;1.00;;;;;;5094387;28;20389;-73
2023/04/13 04:03:34;;;;;;;5.00;1.00;;;7.80;1.00;;;;;;5097692;28;20028;-73
2023/04/13 04:06:00;;;;;;;3.08;1.15;;;7.70;1.00;;;;;;5097656;28;20032;-71
2023/04/13 04:08:26;;;;;;;4.68;1.13;;;7.80;1.00;;;;;;5097257;28;20031;-71
2023/04/13 04:10:52;;;;;;;6.13;1.30;;;7.70;3.50;;;;;;5097341;28;20085;-71
2023/04/13 04:13:17;;;;;;;1.95;0.95;;;7.70;1.00;;;;;;5097320;28;20016;-73
2023/04/13 04:15:43;;;;;;;1.85;0.93;;;7.70;1.00;;;;;;5097433;28;20067;-72
2023/04/13 04:18:09;;;;;;;1.52;0.82;;;7.70;3.90;;;;;;5097232;28;20040;-72
2023/04/13 04:20:34;;;;;;;3.83;1.00;;;7.70;5.50;;;;;;5097170;28;20033;-72
2023/04/13 04:23:00;;;;;;;5.25;1.75;;;7.70;1.00;;;;;;5097350;28;20478;-73
2023/04/13 04:25:26;;;;;;;1.42;0.88;;;7.70;1.00;;;;;;5097214;28;20021;-72
2023/04/13 04:27:56;;;;;;;3.58;0.93;;;7.70;1.00;;;;;;5097522;28;20474;-72
2023/04/13 04:30:23;;;;;;;3.35;0.93;;;7.70;2.00;;;;;;5076934;28;20032;-72
2023/04/13 04:32:51;;;;;;;3.60;1.10;;;7.70;18.20;;;;;;5076396;28;20037;-72
2023/04/13 04:35:19;;;;;;;4.55;1.30;;;7.60;24.30;;;;;;5077099;28;20052;-72
2023/04/13 04:37:48;;;;;;;4.15;1.08;;;7.60;24.60;;;;;;5076754;28;20473;-72
2023/04/13 04:40:14;;;;;;;2.28;1.10;;;7.60;30.50;;;;;;5076179;28;20036;-71
2023/04/13 04:42:41;;;;;;;2.88;1.02;;;7.60;25.90;;;;;;5076709;28;20476;-72
2023/04/13 04:45:07;;;;;;;4.53;1.15;;;7.60;30.50;;;;;;5076723;28;20484;-72
2023/04/13 04:47:40;;;;;;;3.58;1.33;;;7.60;25.40;;;;;;5076851;28;20031;-72
2023/04/13 04:50:08;;;;;;;4.88;1.00;;;7.60;34.20;;;;;;5076333;28;20033;-72
2023/04/13 04:52:33;;;;;;;4.68;0.95;;;7.50;46.40;;;;;;5076755;28;20033;-72
2023/04/13 04:54:59;;;;;;;1.63;1.00;;;7.50;42.40;;;;;;5075532;28;20028;-72
2023/04/13 04:57:25;;;;;;;3.72;1.20;;;7.40;58.80;;;;;;5076382;28;20538;-72
2023/04/13 04:59:50;;;;;;;3.90;1.23;;;7.50;59.10;;;;;;5076354;28;20025;-72
2023/04/13 05:02:16;;;;;;;5.93;1.38;;;7.40;70.40;;;;;;5075843;28;20024;-71
2023/04/13 05:04:41;;;;;;;3.97;1.00;;;7.40;69.40;;;;;;5076347;28;20025;-65
2023/04/13 05:07:08;;;;;;;5.53;1.08;;;7.50;60.90;;;;;;5075925;28;20070;-65
2023/04/13 05:09:33;;;;;;;2.45;1.02;;;7.40;68.40;;;;;;5075765;28;20488;-65
2023/04/13 05:11:59;;;;;;;3.22;1.10;;;7.40;74.30;;;;;;5075566;28;20114;-65
2023/04/13 05:14:25;;;;;;;4.93;1.30;;;7.40;70.10;;;;;;5076081;28;20458;-65
2023/04/13 05:16:50;;;;;;;3.97;1.10;;;7.40;81.20;;;;;;5075809;28;20082;-65
2023/04/13 05:19:16;;;;;;;3.55;1.50;;;7.40;68.90;;;;;;5075887;28;20045;-65
2023/04/13 05:21:41;;;;;;;2.80;1.27;;;7.40;90.40;;;;;;5075703;28;20033;-65
2023/04/13 05:24:07;;;;;;;3.75;1.00;;;7.40;90.50;;;;;;5076056;28;20116;-65
2023/04/13 05:26:33;;;;;;;3.53;1.00;;;7.40;95.00;;;;;;5076106;28;20024;-65
2023/04/13 05:28:58;;;;;;;2.40;1.38;;;7.30;93.00;;;;;;5075808;28;20028;-65
2023/04/13 05:31:24;;;;;;;3.80;1.25;;;7.30;99.50;;;;;;5075333;28;20025;-65
2023/04/13 05:33:50;;;;;;;2.90;1.00;;;7.30;95.10;;;;;;5075434;28;20432;-65
2023/04/13 05:36:16;;;;;;;5.45;1.42;;;7.30;96.50;;;;;;5075387;28;20024;-64
2023/04/13 05:38:41;;;;;;;4.70;2.33;;;7.30;98.20;;;;;;5075298;28;20032;-65
2023/04/13 05:41:09;;;;;;;2.72;1.27;;;7.30;99.90;;;;;;5075760;28;20351;-65
2023/04/13 05:43:34;;;;;;;7.47;2.90;;;7.30;99.90;;;;;;5075874;28;20025;-65
2023/04/13 05:46:00;;;;;;;5.57;1.40;;;7.30;99.90;;;;;;5075349;28;20351;-65
2023/04/13 05:48:26;;;;;;;2.97;1.27;;;7.30;99.90;;;;;;5075757;28;20028;-65
2023/04/13 05:50:58;;;;;;;4.72;1.50;;;7.40;99.90;;;;;;5074705;28;20067;-65
2023/04/13 05:53:24;;;;;;;3.83;1.35;;;7.30;99.90;;;;;;5075551;28;20374;-65
2023/04/13 05:55:51;;;;;;;2.40;1.38;;;7.30;99.90;;;;;;5075080;28;20024;-65
2023/04/13 05:58:18;;;;;;;2.20;1.33;;;7.30;99.90;;;;;;5074698;28;20375;-65
2023/04/13 06:00:43;;;;;;;3.63;1.60;;;7.40;99.90;;;;;;5075253;28;20025;-65
2023/04/13 06:03:09;;;;;;;2.92;1.63;;;7.50;99.90;;;;;;5068949;28;20032;-65
2023/04/13 06:05:36;;;;;;;6.22;1.75;;;7.50;99.90;;;;;;5078905;28;20056;-65
2023/04/13 06:08:02;;;;;;;3.38;1.73;;;7.60;99.90;;;;;;5072638;28;20074;-65
2023/04/13 06:10:27;;;;;;;5.75;2.50;;;7.70;99.90;;;;;;5060247;28;20033;-67
2023/04/13 06:12:53;;;;;;;3.80;1.92;;;7.80;97.20;;;;;;5066464;28;20441;-65
2023/04/13 06:15:19;;;;;;;3.58;1.83;;;7.80;91.80;;;;;;5070575;28;20029;-65
2023/04/13 06:17:45;;;;;;;4.38;2.08;;;7.70;96.60;;;;;;5072399;28;20036;-65
2023/04/13 06:20:11;;;;;;;3.75;1.95;;;7.70;94.30;;;;;;5073798;28;20037;-65
2023/04/13 06:22:37;;;;;;;3.05;1.92;;;7.70;97.90;;;;;;5077011;28;20528;-65
2023/04/13 06:25:03;;;;;;;4.47;2.40;;;7.80;99.90;;;;;;5080962;28;20028;-65
2023/04/13 06:27:28;;;;;;;5.60;2.17;;;7.90;95.20;;;;;;5074881;28;20024;-65
2023/04/13 06:29:55;;;;;;;3.08;1.77;;;7.90;92.60;;;;;;5070207;28;20093;-69
2023/04/13 06:32:21;;;;;;;4.65;2.50;;;7.90;95.00;;;;;;5072317;28;20051;-64
2023/04/13 06:34:46;;;;;;;4.63;2.35;;;7.90;95.20;;;;;;5073421;28;20492;-65
2023/04/13 06:37:12;;;;;;;6.80;2.55;;;7.90;97.70;;;;;;5071082;28;20032;-65
2023/04/13 06:39:37;;;;;;;6.68;2.60;;;7.90;92.20;;;;;;5072234;28;20029;-67
2023/04/13 06:42:03;;;;;;;3.58;2.20;;;7.90;96.70;;;;;;5072607;28;20037;-63
2023/04/13 06:44:29;;;;;;;2.47;2.25;;;7.90;99.90;;;;;;5078615;28;20122;-63
2023/04/13 06:46:55;;;;;;;4.30;2.35;;;7.90;99.20;;;;;;5066857;28;20116;-64
2023/04/13 06:49:21;;;;;;;5.30;2.50;;;8.00;92.90;;;;;;5060108;28;20405;-63
2023/04/13 06:51:46;;;;;;;6.38;2.60;;;8.00;87.70;;;;;;5062394;28;20028;-62
2023/04/13 06:54:12;;;;;;;4.15;1.90;;;8.00;80.80;;;;;;5066071;28;20035;-62
2023/04/13 06:56:39;;;;;;;3.75;2.60;;;8.20;89.10;;;;;;5065261;28;20394;-67
2023/04/13 06:59:04;;;;;;;5.95;2.80;;;8.50;74.10;;;;;;5060629;28;20493;-63
2023/04/13 07:01:30;;;;;;;6.88;3.40;;;8.60;57.60;;;;;;5058110;28;20044;-63
2023/04/13 07:03:56;;;;;;;3.00;2.50;;;8.70;58.70;;;;;;5063511;28;20128;-63
2023/04/13 07:06:22;;;;;;;5.75;2.70;;;8.60;41.60;;;;;;5059950;28;20383;-64
2023/04/13 07:08:48;;;;;;;5.63;2.97;;;8.70;50.70;;;;;;5072459;28;20032;-64
2023/04/13 07:11:13;;;;;;;5.03;2.40;;;8.70;44.70;;;;;;5068032;28;20478;-65
2023/04/13 07:13:39;;;;;;;6.70;2.95;;;8.80;33.10;;;;;;5067364;28;20032;-66
2023/04/13 07:16:07;;;;;;;5.75;2.33;;;8.80;25.10;;;;;;5067282;28;20032;-66
2023/04/13 07:18:33;;;;;;;6.68;2.58;;;8.90;27.30;;;;;;5077262;28;20735;-64
2023/04/13 07:20:58;;;;;;;2.78;2.20;;;8.80;6.70;;;;;;5061553;28;20056;-65
2023/04/13 07:23:24;;;;;;;5.00;2.10;;;8.80;15.40;;;;;;5077558;28;20393;-64
2023/04/13 07:25:50;;;;;;;3.55;2.20;;;8.70;14.50;;;;;;5070955;28;20078;-65
2023/04/13 07:28:15;;;;;;;6.68;2.40;;;8.80;21.20;;;;;;5058835;28;20023;-64
2023/04/13 07:30:43;;;;;;;5.53;2.58;;;8.80;8.70;;;;;;5064176;28;20444;-64
2023/04/13 07:33:09;;;;;;;5.20;3.47;;;8.70;14.50;;;;;;5064033;28;20025;-65
2023/04/13 07:35:36;;;;;;;5.53;2.28;;;8.80;1.00;;;;;;5059121;28;20047;-64
2023/04/13 07:38:02;;;;;;;4.55;1.90;;;8.90;1.00;;;;;;5068694;28;20025;-65
2023/04/13 07:40:27;;;;;;;4.70;1.95;;;9.10;1.00;;;;;;5075205;28;20032;-64
2023/04/13 07:42:53;;;;;;;6.07;2.30;;;9.20;1.00;;;;;;5063689;28;20028;-65
2023/04/13 07:45:20;;;;;;;3.70;1.63;;;9.20;1.00;;;;;;5065361;28;20021;-65
2023/04/13 07:47:46;;;;;;;7.47;2.38;;;9.20;1.00;;;;;;5062669;28;20481;-65
2023/04/13 07:50:12;;;;;;;4.05;2.08;;;9.30;1.00;;;;;;5068586;28;20116;-66
2023/04/13 07:52:38;;;;;;;8.07;2.03;;;9.30;1.00;;;;;;5059292;28;20103;-65
2023/04/13 07:55:04;;;;;;;3.45;1.80;;;9.50;1.00;;;;;;5064937;28;20037;-66
2023/04/13 07:57:30;;;;;;;5.70;1.40;;;9.90;1.00;;;;;;5061048;28;20028;-65
2023/04/13 07:59:56;;;;;;;3.15;1.48;;;10.80;1.00;;;;;;5059526;28;20406;-66
2023/04/13 08:02:21;;;;;;;3.35;1.60;;;11.30;1.00;;;;;;5065883;28;20052;-65
2023/04/13 08:04:47;;;;;;;4.53;1.50;;;11.60;31.00;;;;;;5067664;28;20028;-66
2023/04/13 08:07:13;;;;;;;3.88;1.55;;;11.90;1.00;;;;;;5056136;28;20032;-65
2023/04/13 08:09:40;;;;;;;4.25;1.60;;;12.10;99.90;;;;;;5065300;28;20403;-65
2023/04/13 08:12:07;;;;;;;3.53;1.60;;;12.40;1.00;;;;;;5067361;28;20028;-65
2023/04/13 08:14:33;;;;;;;6.53;2.45;;;12.30;99.90;;;;;;5065776;28;20043;-67
2023/04/13 08:16:58;;;;;;;4.47;1.55;;;12.90;99.90;;;;;;5065004;28;20338;-67
2023/04/13 08:19:24;;;;;;;7.25;3.97;;;13.00;99.90;;;;;;5052704;28;20051;-67
2023/04/13 08:21:50;;;;;;;36.65;18.17;;;13.00;1.00;;;;;;5054606;28;20016;-67
2023/04/13 08:24:16;;;;;;;33.88;15.15;;;12.90;99.90;;;;;;5053661;28;20036;-65
2023/04/13 08:26:41;;;;;;;22.58;10.80;;;13.50;53.90;;;;;;5055024;28;20114;-66
2023/04/13 08:29:07;;;;;;;3.60;1.95;;;12.90;1.00;;;;;;5058121;28;20083;-67
2023/04/13 08:31:33;;;;;;;16.40;9.57;;;12.40;1.00;;;;;;5068334;28;20038;-67
2023/04/13 08:33:58;;;;;;;19.10;12.35;;;12.80;47.00;;;;;;5068909;28;20033;-65
2023/04/13 08:36:25;;;;;;;5.90;4.22;;;12.60;99.90;;;;;;5064491;28;20040;-64
2023/04/13 08:38:52;;;;;;;5.30;1.80;;;12.20;99.90;;;;;;5070490;28;20092;-65
2023/04/13 08:41:20;;;;;;;3.25;1.30;;;12.10;1.00;;;;;;5068649;28;20074;-64
2023/04/13 08:43:48;;;;;;;5.13;1.70;;;11.70;99.90;;;;;;5057278;28;20488;-65
2023/04/13 08:46:18;;;;;;;4.20;1.30;;;11.20;99.90;;;;;;5071506;28;20517;-64
2023/04/13 08:48:45;;;;;;;3.40;1.20;;;11.20;99.90;;;;;;5064323;28;20551;-65
2023/04/13 08:51:13;;;;;;;2.72;1.33;;;11.00;99.90;;;;;;5061418;28;20121;-67
2023/04/13 08:53:38;;;;;;;3.10;1.70;;;10.70;1.00;;;;;;5059879;28;20025;-68
2023/04/13 08:56:09;;;;;;;3.33;1.55;;;10.50;99.90;;;;;;5066944;28;20032;-68
2023/04/13 08:58:39;;;;;;;3.58;1.42;;;10.30;99.90;;;;;;5055170;28;20041;-68
2023/04/13 09:01:05;;;;;;;4.72;1.52;;;10.20;1.00;;;;;;5068818;28;20025;-68
2023/04/13 09:03:34;;;;;;;2.88;1.60;;;10.10;99.90;;;;;;5064574;28;20032;-67
2023/04/13 09:06:06;;;;;;;4.35;1.50;;;10.10;99.90;;;;;;5061384;28;20017;-68
2023/04/13 09:08:34;;;;;;;4.60;2.20;;;9.90;99.90;;;;;;5058802;28;20134;-68
2023/04/13 09:11:01;;;;;;;6.82;2.58;;;9.90;1.00;;;;;;5059476;28;20028;-68
2023/04/13 09:13:27;;;;;;;13.63;7.07;;;9.90;1.00;;;;;;5069132;28;20047;-69
2023/04/13 09:15:53;;;;;;;18.50;9.95;;;9.90;1.00;;;;;;5064599;28;20033;-69
2023/04/13 09:18:19;;;;;;;11.00;4.95;;;10.20;1.00;;;;;;5066425;28;20510;-68
2023/04/13 09:20:59;;;;;;;14.15;8.18;;;10.30;1.00;;;;;;5057945;28;20028;-68
2023/04/13 09:23:25;;;;;;;13.23;5.95;;;10.20;99.90;;;;;;5069642;28;20053;-68
2023/04/13 09:26:03;;;;;;;14.13;6.07;;;10.30;99.90;;;;;;5066858;28;20115;-68
2023/04/13 09:28:29;;;;;;;8.15;4.13;;;10.50;99.90;;;;;;5069873;28;20025;-68
2023/04/13 09:31:02;;;;;;;7.88;2.22;;;10.80;99.90;;;;;;5072177;28;20492;-69
2023/04/13 09:33:42;;;;;;;3.83;2.60;;;10.80;99.90;;;;;;5062210;28;20104;-68
2023/04/13 09:36:09;;;;;;;5.13;2.13;;;10.70;99.90;;;;;;5073117;28;20110;-68
2023/04/13 09:38:35;;;;;;;3.70;1.88;;;10.70;99.90;;;;;;5066854;28;20113;-68
2023/04/13 09:41:01;;;;;;;3.53;2.00;;;10.80;99.90;;;;;;5063907;28;20498;-68
2023/04/13 09:43:36;;;;;;;6.55;2.08;;;10.90;99.90;;;;;;5070887;28;20470;-68
2023/04/13 09:46:02;;;;;;;5.80;2.47;;;10.90;99.90;;;;;;5074404;28;20489;-68
2023/04/13 09:48:28;;;;;;;5.90;2.10;;;11.10;59.00;;;;;;5073190;28;20025;-69
2023/04/13 09:51:01;;;;;;;5.32;2.20;;;11.10;15.90;;;;;;5074388;28;20055;-68
2023/04/13 09:53:28;;;;;;;4.93;2.50;;;10.80;39.40;;;;;;5069407;28;20024;-68
2023/04/13 09:55:58;;;;;;;4.85;1.80;;;10.60;74.50;;;;;;5071399;28;20513;-69
2023/04/13 09:58:24;;;;;;;4.45;2.13;;;10.50;99.90;;;;;;5068166;28;20462;-70
2023/04/13 10:00:50;;;;;;;5.00;1.90;;;10.40;99.90;;;;;;5060504;28;20035;-70
2023/04/13 10:03:18;;;;;;;6.53;2.33;;;10.50;99.90;;;;;;5069026;28;20028;-69
2023/04/13 10:05:44;;;;;;;6.88;2.45;;;10.50;99.90;;;;;;5057514;28;20037;-69
2023/04/13 10:08:09;;;;;;;9.82;2.47;;;10.40;1.00;;;;;;5071162;28;20500;-69
2023/04/13 10:10:36;;;;;;;5.32;2.00;;;10.40;1.00;;;;;;5056523;28;20048;-70
2023/04/13 10:13:09;;;;;;;7.85;4.20;;;10.50;1.00;;;;;;5055717;28;20021;-70
2023/04/13 10:16:00;;;;;;;22.73;11.55;;;10.40;99.90;;;;;;5054872;28;20059;-70
2023/04/13 10:18:56;;;;;;;9.30;4.38;;;10.30;99.90;;;;;;5056972;28;20049;-69
2023/04/13 10:21:22;;;;;;;10.60;3.97;;;10.70;99.90;;;;;;5072535;28;20043;-69
2023/04/13 10:23:48;;;;;;;13.32;7.55;;;11.00;1.00;;;;;;5067829;28;20047;-70
2023/04/13 10:26:13;;;;;;;10.57;5.90;;;11.70;99.90;;;;;;5059222;28;20036;-70
2023/04/13 10:28:42;;;;;;;5.95;2.20;;;12.20;1.00;;;;;;5057172;28;20106;-70
2023/04/13 10:31:09;;;;;;;8.38;2.60;;;12.40;99.90;;;;;;5061344;28;20497;-70
2023/04/13 10:33:47;;;;;;;7.97;2.15;;;12.30;99.90;;;;;;5059819;28;20020;-69
2023/04/13 10:36:12;;;;;;;5.32;2.72;;;12.00;99.90;;;;;;5059943;28;20053;-69
2023/04/13 10:38:42;;;;;;;5.13;2.25;;;12.10;99.90;;;;;;5069069;28;20496;-70
2023/04/13 10:41:08;;;;;;;3.90;2.20;;;12.00;99.90;;;;;;5072247;28;20024;-70
2023/04/13 10:43:33;;;;;;;4.78;2.17;;;11.80;1.00;;;;;;5058512;28;20029;-69
2023/04/13 10:46:07;;;;;;;6.38;2.38;;;11.70;1.00;;;;;;5072115;28;20470;-70
2023/04/13 10:48:33;;;;;;;5.10;2.60;;;11.40;1.00;;;;;;5057466;28;20271;-70
2023/04/13 10:51:00;;;;;;;8.40;3.30;;;11.30;1.00;;;;;;5061002;28;20028;-69
2023/04/13 10:53:29;;;;;;;4.55;2.00;;;11.50;1.20;;;;;;5065333;28;20025;-70
2023/04/13 10:55:54;;;;;;;6.70;2.75;;;11.50;1.00;;;;;;5064901;28;20024;-70
2023/04/13 10:58:21;;;;;;;5.82;2.40;;;11.30;1.00;;;;;;5068273;28;20395;-70
2023/04/13 11:00:48;;;;;;;9.45;2.67;;;11.30;1.00;;;;;;5059487;28;20028;-69
2023/04/13 11:03:15;;;;;;;8.50;2.50;;;11.30;1.00;;;;;;5065670;28;20067;-70
2023/04/13 11:05:42;;;;;;;8.95;2.63;;;11.30;27.50;;;;;;5073077;28;20033;-70
2023/04/13 11:08:08;;;;;;;7.25;2.67;;;11.20;52.70;;;;;;5071123;28;20370;-70
2023/04/13 11:10:33;;;;;;;6.70;2.33;;;11.20;99.90;;;;;;5063314;28;20159;-70
2023/04/13 11:12:59;;;;;;;6.47;2.25;;;11.10;99.90;;;;;;5059254;28;20506;-70
2023/04/13 11:15:27;;;;;;;7.88;2.75;;;11.00;99.90;;;;;;5057647;28;20040;-69
2023/04/13 11:17:57;;;;;;;7.90;2.50;;;10.90;99.90;;;;;;5064153;28;20028;-69
2023/04/13 11:20:40;;;;;;;11.43;2.95;;;10.90;99.90;;;;;;5070366;28;20102;-70
2023/04/13 11:23:14;;;;;;;9.82;2.88;;;10.80;99.90;;;;;;5059469;28;20394;-70
2023/04/13 11:28:39;;;;;;;10.93;2.92;;;11.10;99.90;;;;;;5107580;27;20415;-69
2023/04/13 11:31:06;;;;;;;7.78;3.47;;;11.10;99.90;;;;;;5092267;28;20544;-70
2023/04/13 11:33:33;;;;;;;9.95;2.40;;;11.20;99.90;;;;;;5089352;28;20371;-69
2023/04/13 11:35:59;;;;;;;8.45;2.88;;;11.30;99.90;;;;;;5097305;28;20123;-72
2023/04/13 11:38:26;;;;;;;12.75;3.17;;;11.30;99.90;;;;;;5096678;28;20036;-70
2023/04/13 11:40:58;;;;;;;10.48;2.72;;;11.30;15.60;;;;;;5099732;28;20032;-71
2023/04/13 11:43:24;;;;;;;11.77;3.30;;;11.20;1.00;;;;;;5090729;28;20043;-71
2023/04/13 11:45:51;;;;;;;9.27;2.83;;;11.40;1.00;;;;;;5085558;28;20025;-69
2023/04/13 11:48:18;;;;;;;9.57;2.95;;;11.50;99.90;;;;;;5087249;28;20056;-71
2023/04/13 11:50:44;;;;;;;7.90;3.05;;;11.30;1.00;;;;;;5103908;28;20020;-71
2023/04/13 11:53:10;;;;;;;6.53;2.92;;;11.40;99.90;;;;;;5102982;28;20101;-71
2023/04/13 11:55:38;;;;;;;8.63;2.42;;;11.60;99.90;;;;;;5084541;28;20507;-70
2023/04/13 11:58:07;;;;;;;7.28;2.38;;;12.00;99.90;;;;;;5088337;28;20481;-69
2023/04/13 12:00:38;;;;;;;8.52;3.28;;;12.20;99.90;;;;;;5085039;28;20052;-69
2023/04/13 12:03:11;;;;;;;9.60;3.08;;;12.40;99.90;;;;;;5078147;28;20457;-70
2023/04/13 12:05:37;;;;;;;7.75;2.83;;;12.60;1.00;;;;;;5069545;28;20447;-68
2023/04/13 12:08:02;;;;;;;6.43;3.00;;;12.80;1.00;;;;;;5069152;28;20131;-68
2023/04/13 12:10:31;;;;;;;9.88;3.25;;;12.50;1.00;;;;;;5064368;28;20068;-68
2023/04/13 12:12:59;;;;;;;14.30;3.38;;;12.10;1.00;;;;;;5088014;28;20028;-68
2023/04/13 12:15:28;;;;;;;6.15;2.63;;;12.10;1.00;;;;;;5076760;28;20036;-68
2023/04/13 12:17:55;;;;;;;12.00;3.40;;;11.80;1.00;;;;;;5075961;28;20044;-69
2023/04/13 12:20:21;;;;;;;11.82;3.40;;;11.90;32.70;;;;;;5059113;28;20032;-69
2023/04/13 12:22:47;;;;;;;10.60;3.33;;;11.90;1.00;;;;;;5066661;28;20029;-69
2023/04/13 12:25:16;;;;;;;10.73;3.47;;;12.40;1.00;;;;;;5071058;28;20370;-69
2023/04/13 12:27:42;;;;;;;8.80;3.03;;;12.60;1.00;;;;;;5086783;28;20494;-68
2023/04/13 12:30:11;;;;;;;16.23;3.65;;;12.60;1.00;;;;;;5059838;28;20056;-71
2023/04/13 12:32:42;;;;;;;9.27;3.25;;;12.50;1.00;;;;;;5063712;28;20025;-70
2023/04/13 12:35:08;;;;;;;13.10;3.20;;;12.50;99.90;;;;;;5075259;28;20090;-66
2023/04/13 12:37:37;;;;;;;8.02;3.28;;;12.40;99.90;;;;;;5052240;28;20529;-67
2023/04/13 12:40:08;;;;;;;11.43;4.18;;;12.30;99.90;;;;;;5044265;28;20032;-68
2023/04/13 12:42:33;;;;;;;11.13;3.55;;;12.70;99.90;;;;;;5049091;28;20509;-68
2023/04/13 12:44:59;;;;;;;10.60;3.40;;;13.10;99.90;;;;;;5053850;28;20029;-68
2023/04/13 12:47:25;;;;;;;11.32;3.60;;;13.20;1.00;;;;;;5053498;28;20083;-66
2023/04/13 12:49:50;;;;;;;5.53;2.70;;;12.90;99.90;;;;;;5060319;28;20478;-68
2023/04/13 12:52:16;;;;;;;8.07;2.65;;;12.80;59.60;;;;;;5064963;28;20101;-69
2023/04/13 12:54:41;;;;;;;8.65;2.85;;;12.90;99.90;;;;;;5059827;28;20079;-67
2023/04/13 12:57:07;;;;;;;13.65;3.20;;;12.80;99.90;;;;;;5054999;28;20483;-67
2023/04/13 12:59:32;;;;;;;16.05;3.05;;;12.60;1.00;;;;;;5055943;28;20029;-67